Meteorología y climatología de Navarra
Datos de la estación - Meteo Navarra

Estación de Estella GN

Altitud 486 m.


Datos desde el 09/11/2018 hasta el 10/11/2018 en horario solar
Los datos son PROVISIONALES

Anterior Página 1 de 1 Siguiente Descargar: Formato para Excel 2000 o superior   Formato csv   Formato para OpenOffice Calc
Fecha Temperatura Humedad relativa Radiación global Insolación Precipitación Velocidad viento 10 m Velocidad viento 10 m Dirección viento 10 m
ºC % W/m² s l/m² m/s km/h º
09/11/2018 0:00 8.4 80 0.0 0 0.0 1.8 6.4 284
09/11/2018 0:10 8.0 82 0.0 0 0.0 1.4 5.1 37
09/11/2018 0:20 7.8 83 0.0 0 0.0 1.5 5.3 15
09/11/2018 0:30 7.7 83 0.0 0 0.0 1.1 4.0 337
09/11/2018 0:40 7.8 83 0.0 0 0.0 1.2 4.4 268
09/11/2018 0:50 7.8 82 0.0 0 0.0 1.7 6.2 261
09/11/2018 1:00 8.1 79 0.0 0 0.0 3.0 10.7 264
09/11/2018 1:10 8.3 77 0.0 0 0.0 3.6 12.9 260
09/11/2018 1:20 8.1 79 0.0 0 0.0 3.1 11.0 258
09/11/2018 1:30 7.8 80 0.0 0 0.0 2.6 9.3 259
09/11/2018 1:40 7.7 80 0.0 0 0.0 2.2 7.8 265
09/11/2018 1:50 7.5 81 0.0 0 0.0 1.7 6.3 276
09/11/2018 2:00 7.3 82 0.0 0 0.0 1.0 3.6 306
09/11/2018 2:10 7.0 83 0.0 0 0.0 0.8 3.0 343
09/11/2018 2:20 7.0 84 0.0 0 0.0 0.8 2.9 337
09/11/2018 2:30 7.3 82 0.0 0 0.0 1.3 4.7 344
09/11/2018 2:40 7.5 80 0.0 0 0.0 1.0 3.7 331
09/11/2018 2:50 7.6 79 0.0 0 0.0 1.5 5.4 287
09/11/2018 3:00 7.7 79 0.0 0 0.0 1.8 6.4 262
09/11/2018 3:10 7.6 81 0.0 0 0.0 1.6 5.6 269
09/11/2018 3:20 7.5 81 0.0 0 0.0 1.2 4.3 280
09/11/2018 3:30 7.4 82 0.0 0 0.0 0.9 3.1 269
09/11/2018 3:40 7.4 82 0.0 0 0.0 2.0 7.0 272
09/11/2018 3:50 7.3 82 0.0 0 0.0 1.5 5.5 274
09/11/2018 4:00 7.3 83 0.0 0 0.0 1.9 6.7 272
09/11/2018 4:10 7.4 81 0.0 0 0.0 2.3 8.1 265
09/11/2018 4:20 7.4 81 0.0 0 0.0 2.3 8.1 279
09/11/2018 4:30 7.3 83 0.0 0 0.0 1.5 5.4 310
09/11/2018 4:40 7.2 83 0.0 0 0.0 1.5 5.5 303
09/11/2018 4:50 7.3 83 0.0 0 0.0 1.3 4.6 294
09/11/2018 5:00 7.3 82 0.0 0 0.0 1.8 6.6 272
09/11/2018 5:10 7.4 81 0.0 0 0.0 2.2 7.8 266
09/11/2018 5:20 7.6 80 0.0 0 0.0 2.9 10.6 260
09/11/2018 5:30 7.5 79 0.0 0 0.0 3.6 13.1 257
09/11/2018 5:40 7.4 79 0.0 0 0.0 3.5 12.7 258
09/11/2018 5:50 7.3 80 0.0 0 0.0 2.7 9.6 264
09/11/2018 6:00 7.3 79 0.0 0 0.0 2.8 9.9 261
09/11/2018 6:10 7.3 79 0.0 0 0.0 2.1 7.4 286
09/11/2018 6:20 7.2 80 0.0 0 0.0 1.4 4.9 293
09/11/2018 6:30 7.2 79 0.0 0 0.0 1.4 5.0 269
09/11/2018 6:40 7.1 79 0.0 0 0.0 1.2 4.2 276
09/11/2018 6:50 7.0 80 0.0 0 0.0 1.4 4.9 286
09/11/2018 7:00 6.8 80 0.0 0 0.0 1.3 4.5 285
09/11/2018 7:10 6.6 82 0.0 0 0.0 0.8 2.9 264
09/11/2018 7:20 6.7 81 5.0 0 0.0 1.1 4.1 302
09/11/2018 7:30 6.9 80 21.8 0 0.0 0.9 3.2 316
09/11/2018 7:40 7.1 80 28.1 0 0.0 1.1 3.9 291
09/11/2018 7:50 7.1 80 31.3 0 0.0 1.4 5.1 288
09/11/2018 8:00 7.2 79 33.7 0 0.0 1.2 4.4 285
09/11/2018 8:10 7.2 80 71.5 0 0.0 1.6 5.6 298
09/11/2018 8:20 7.5 78 101.7 122 0.0 2.2 7.9 275
09/11/2018 8:30 7.6 78 69.0 0 0.0 2.3 8.2 280
09/11/2018 8:40 7.7 78 135.4 202 0.0 2.2 7.7 265
09/11/2018 8:50 8.1 77 246.2 540 0.0 2.4 8.6 262
09/11/2018 9:00 8.8 75 322.5 576 0.0 2.5 9.1 262
09/11/2018 9:10 8.8 75 221.8 322 0.0 2.2 7.8 266
09/11/2018 9:20 9.4 73 355.4 594 0.0 2.1 7.4 261
09/11/2018 9:30 9.7 72 387.2 600 0.0 2.6 9.3 266
09/11/2018 9:40 10.0 71 470.2 600 0.0 2.8 10.1 255
09/11/2018 9:50 9.6 71 228.6 344 0.0 2.5 9.0 256
09/11/2018 10:00 9.6 72 262.9 478 0.0 2.8 10.2 263
09/11/2018 10:10 9.6 71 241.4 402 0.0 3.8 13.6 258
09/11/2018 10:20 9.5 71 298.3 570 0.0 3.5 12.6 263
09/11/2018 10:30 9.8 71 263.0 252 0.0 2.9 10.5 253
09/11/2018 10:40 10.6 67 588.7 600 0.0 3.3 11.8 263
09/11/2018 10:50 11.2 65 435.1 600 0.0 2.9 10.3 262
09/11/2018 11:00 11.0 65 298.9 478 0.0 3.0 10.7 267
09/11/2018 11:10 11.1 64 379.5 564 0.0 3.5 12.4 262
09/11/2018 11:20 11.7 61 595.8 582 0.0 3.6 13.1 260
09/11/2018 11:30 12.0 60 541.3 600 0.0 3.0 10.9 260
09/11/2018 11:40 12.2 59 535.2 600 0.0 2.4 8.7 251
09/11/2018 11:50 12.6 58 529.9 600 0.0 3.4 12.2 255
09/11/2018 12:00 12.5 57 531.7 600 0.0 3.4 12.2 261
09/11/2018 12:10 12.8 56 536.1 600 0.0 3.2 11.4 253
09/11/2018 12:20 12.9 53 537.9 600 0.0 3.1 11.1 259
09/11/2018 12:30 12.8 53 448.0 550 0.0 2.9 10.5 264
09/11/2018 12:40 12.7 54 494.8 600 0.0 3.4 12.1 263
09/11/2018 12:50 13.2 53 559.6 600 0.0 3.1 11.3 263
09/11/2018 13:00 13.0 52 308.2 256 0.0 2.9 10.4 254
09/11/2018 13:10 12.4 54 392.3 520 0.0 3.0 10.7 260
09/11/2018 13:20 13.1 51 486.2 600 0.0 2.6 9.3 267
09/11/2018 13:30 12.8 51 437.0 600 0.0 3.9 14.0 266
09/11/2018 13:40 12.5 50 422.1 600 0.0 4.2 14.9 258
09/11/2018 13:50 12.6 50 435.5 600 0.0 4.2 15.1 256
09/11/2018 14:00 12.6 50 329.0 566 0.0 3.6 13.0 263
09/11/2018 14:10 12.4 49 364.4 600 0.0 3.1 11.3 258
09/11/2018 14:20 13.1 48 380.6 600 0.0 3.1 11.2 256
09/11/2018 14:30 13.1 49 348.9 600 0.0 3.0 10.9 258
09/11/2018 14:40 13.1 49 326.0 600 0.0 2.4 8.5 258
09/11/2018 14:50 13.4 48 300.6 600 0.0 2.1 7.7 258
09/11/2018 15:00 13.4 48 277.5 600 0.0 2.3 8.4 260
09/11/2018 15:10 13.2 49 251.0 600 0.0 2.3 8.4 262
09/11/2018 15:20 13.1 49 146.4 312 0.0 2.5 9.1 263
09/11/2018 15:30 12.0 52 67.3 0 0.0 2.5 9.1 257
09/11/2018 15:40 11.7 51 114.8 182 0.0 2.3 8.4 265
09/11/2018 15:50 12.2 50 185.1 600 0.0 2.9 10.3 262
09/11/2018 16:00 12.3 50 140.4 600 0.0 3.3 12.0 266
09/11/2018 16:10 12.1 51 87.2 600 0.0 2.5 9.1 262
09/11/2018 16:20 11.9 53 34.2 148 0.0 2.2 7.8 259
09/11/2018 16:30 11.3 55 1.8 0 0.0 3.3 11.8 258
09/11/2018 16:40 11.0 57 0.0 0 0.0 2.5 9.1 255
09/11/2018 16:50 10.8 57 0.0 0 0.0 3.4 12.2 264
09/11/2018 17:00 10.7 59 0.0 0 0.0 3.5 12.5 263
09/11/2018 17:10 10.6 59 0.0 0 0.0 3.6 13.0 258
09/11/2018 17:20 10.5 60 0.0 0 0.0 3.7 13.4 263
09/11/2018 17:30 10.5 61 0.0 0 0.0 4.2 15.0 259
09/11/2018 17:40 10.6 61 0.0 0 0.0 3.7 13.4 259
09/11/2018 17:50 10.7 60 0.0 0 0.0 3.7 13.5 262
09/11/2018 18:00 10.8 61 0.0 0 0.0 3.6 13.1 260
09/11/2018 18:10 10.7 62 0.0 0 0.0 3.6 13.1 257
09/11/2018 18:20 10.8 62 0.0 0 0.0 3.4 12.2 262
09/11/2018 18:30 10.8 62 0.0 0 0.0 3.5 12.6 271
09/11/2018 18:40 10.9 62 0.0 0 0.0 3.1 11.3 277
09/11/2018 18:50 10.9 64 0.0 0 0.0 2.7 9.8 275
09/11/2018 19:00 10.8 64 0.0 0 0.0 2.0 7.1 251
09/11/2018 19:10 10.9 65 0.0 0 0.0 2.4 8.7 262
09/11/2018 19:20 10.8 65 0.0 0 0.0 2.5 9.1 259
09/11/2018 19:30 10.6 67 0.0 0 0.0 2.0 7.1 262
09/11/2018 19:40 10.5 67 0.0 0 0.0 2.0 7.2 267
09/11/2018 19:50 10.6 68 0.0 0 0.0 1.4 5.1 282
09/11/2018 20:00 10.5 69 0.0 0 0.0 1.0 3.6 251
09/11/2018 20:10 10.3 71 0.0 0 0.0 0.9 3.1 194
09/11/2018 20:20 9.9 73 0.0 0 0.0 0.7 2.5 154
09/11/2018 20:30 9.4 74 0.0 0 0.0 1.4 5.0 62
09/11/2018 20:40 9.2 74 0.0 0 0.0 1.7 6.3 52
09/11/2018 20:50 9.6 73 0.0 0 0.0 1.2 4.4 60
09/11/2018 21:00 9.6 73 0.0 0 0.0 0.7 2.4 125
09/11/2018 21:10 9.3 78 0.0 0 0.0 0.9 3.3 91
09/11/2018 21:20 9.2 80 0.0 0 0.0 1.0 3.5 44
09/11/2018 21:30 8.6 84 0.0 0 0.0 1.2 4.5 79
09/11/2018 21:40 9.0 78 0.0 0 0.0 0.8 3.0 88
09/11/2018 21:50 9.0 76 0.0 0 0.0 1.6 5.8 96
09/11/2018 22:00 8.6 77 0.0 0 0.0 1.3 4.7 94
09/11/2018 22:10 8.5 77 0.0 0 0.0 1.3 4.8 87
09/11/2018 22:20 8.5 77 0.0 0 0.0 1.3 4.8 78
09/11/2018 22:30 8.5 76 0.0 0 0.0 0.8 2.8 66
09/11/2018 22:40 8.3 78 0.0 0 0.0 1.1 3.8 74
09/11/2018 22:50 8.6 73 0.0 0 0.0 1.4 5.0 81
09/11/2018 23:00 8.6 73 0.0 0 0.0 1.3 4.7 99
09/11/2018 23:10 8.7 72 0.0 0 0.0 1.4 4.9 86
09/11/2018 23:20 8.8 72 0.0 0 0.0 1.2 4.4 102
09/11/2018 23:30 8.7 72 0.0 0 0.0 1.1 3.9 86
09/11/2018 23:40 8.7 73 0.0 0 0.0 0.6 2.3 94
09/11/2018 23:50 8.6 75 0.0 0 0.0 0.5 1.9 86
Anterior Página 1 de 1 Siguiente

NOTA: Tipo de datos según el color:
   - Valores diarios o 10 minutos correctos
   - Valores diarios calculados a partir de un número de datos 10 minutos menor que 144 y mayor que 120, o de un número de datos semihorarios menor que 48 y mayor que 40 (caso de las estaciones de Riegos de Navarra y del MARM)
   - Valores diez minutos estimados


Contacto        Enlaces        Aviso legal